Maxwell Air Force Base
KMXF : now visible

Airfield :











YOU CAN JOIN US ON...

 
LOGIN :

Register | Disclaimer

   EN    FR    IT 

 









Legend :    VFR   Marginal VFR   IFR   Intensive IFR   Very Intensive IFR
Visi :
Ceiling :
>= 8 km
>= 3000ft
5 to 8 km
1000 to 3000 ft
1500m to 5 km
500 to 1000 ft
800 to 1500m
200 to 500 ft
< 800m
< 200 ft
Symbols :   Thunderstorms  Fog  Heavy snow  Heavy precipitations  Wind > 20 kt






- Airport Elevation : 171 ft


KMXF - Maxwell Air Force Base

CURRENT METAR :
  • 241756Z AUTO 19005KT 10SM CLR 21/M04 A3011 RMK AO2 SLP199 T02111042 10211 20025 57018

EXPIRED METARs :
  • 241656Z AUTO 19004KT 10SM CLR 20/M06 A3014 RMK AO2 SLP209 T01991059
  • 241556Z AUTO 21004KT 10SM CLR 16/M03 A3015 RMK AO2 SLP213 T01631033

TAF TAF KMXF
Valid from the 24 at 12:00 until the 25 at 18:00 UTC


241200Z 2412/2518 VRB06KT 9999 SKC QNH3006INS
BECMG 2414/2415 20009KT 9999 SKC QNH3004INS
BECMG 2505/2506 24006KT 9999 BKN030 QNH3003INS
BECMG 2508/2509 VRB06KT 9999 VCSH OVC015 QNH3010INS
BECMG 2515/2516 33006KT 9999 NSW BKN025 QNH3022INS TX23/2422Z TN03/2412Z
KZTL FIR / North America



MET'MAP, your aeronautical weather chart ! - Copyright ORBIFLY December 2007 - Disclaimer

ORBIFLY MET'MAP TEAM :

Programming & Development : Alexandra Zaïnal
Concept & original design : Baudouin d'Aumeries
Assistance for programming : Marc-Olivier Méhu
Technical & hardware support : Manuel Goepfert

Contact : metmap@orbifly.com




SOURCES & CREDITS :

   NOAA       Earth
Advisory